Time;durP1;ratioP1;P1;durP2;ratioP2;P2;SDS_P1;SDS_P2;PMS_P1;PMS_P2;Temp;Humidity;BMP_temperature;BMP_pressure;BME280_temperature;BME280_humidity;BME280_pressure;Samples;Min_cycle;Max_cycle;Signal;HPM_P1;HPM_P2
2022/06/09 00:00:34;;;;;;;;;;;16.00;99.90;;;;;;5076140;28;20332;-80
2022/06/09 00:03:03;;;;;;;;;;;16.00;99.90;;;;;;5058093;28;19912;-80
2022/06/09 00:05:31;;;;;;;;;;;15.90;99.90;;;;;;5076056;28;20003;-81
2022/06/09 00:07:57;;;;;;;;;;;15.90;99.90;;;;;;5076022;28;20015;-80
2022/06/09 00:10:26;;;;;;;;;;;15.80;99.90;;;;;;5076036;28;20368;-81
2022/06/09 00:12:52;;;;;;;;;;;15.90;99.90;;;;;;5075915;28;19909;-80
2022/06/09 00:15:17;;;;;;;;;;;15.90;99.90;;;;;;5075921;28;20412;-81
2022/06/09 00:17:44;;;;;;;;;;;16.00;99.90;;;;;;5075916;28;19916;-80
2022/06/09 00:20:11;;;;;;;;;;;15.90;99.90;;;;;;5075841;28;19908;-81
2022/06/09 00:22:37;;;;;;;;;;;15.90;99.90;;;;;;5075724;28;19919;-83
2022/06/09 00:25:03;;;;;;;;;;;15.80;99.90;;;;;;5075732;28;19908;-79
2022/06/09 00:27:29;;;;;;;;;;;15.80;99.90;;;;;;5075606;28;19999;-81
2022/06/09 00:29:54;;;;;;;;;;;15.80;99.90;;;;;;5075676;28;19947;-83
2022/06/09 00:32:20;;;;;;;;;;;16.00;99.90;;;;;;5075614;28;20271;-80
2022/06/09 00:34:46;;;;;;;;;;;16.00;99.90;;;;;;5076065;28;19935;-82
2022/06/09 00:37:12;;;;;;;;;;;16.00;99.90;;;;;;5075261;28;19920;-80
2022/06/09 00:39:37;;;;;;;;;;;15.90;99.90;;;;;;5075441;28;20376;-79
2022/06/09 00:42:03;;;;;;;;;;;15.70;99.90;;;;;;5075460;28;19912;-81
2022/06/09 00:44:29;;;;;;;;;;;15.70;99.90;;;;;;5075314;28;20360;-79
2022/06/09 00:47:00;;;;;;;;;;;15.80;99.90;;;;;;5075688;28;19909;-79
2022/06/09 00:49:31;;;;;;;;;;;15.80;99.90;;;;;;5075479;28;19919;-81
2022/06/09 00:51:59;;;;;;;;;;;15.80;99.90;;;;;;5075310;28;20291;-80
2022/06/09 00:54:28;;;;;;;;;;;15.80;99.90;;;;;;5075153;28;19924;-80
2022/06/09 00:56:57;;;;;;;;;;;15.40;99.90;;;;;;5075066;28;19909;-79
2022/06/09 00:59:26;;;;;;;;;;;15.10;99.90;;;;;;5090606;28;19995;-82
2022/06/09 01:01:52;;;;;;;;;;;15.20;99.90;;;;;;5074944;28;19962;-79
2022/06/09 01:04:20;;;;;;;;;;;15.30;99.90;;;;;;5075382;28;19914;-81
2022/06/09 01:06:51;;;;;;;;;;;15.40;99.90;;;;;;5074911;28;19958;-79
2022/06/09 01:09:19;;;;;;;;;;;15.20;99.90;;;;;;5074793;28;19909;-80
2022/06/09 01:11:54;;;;;;;;;;;15.10;99.90;;;;;;5075100;28;19908;-80
2022/06/09 01:14:22;;;;;;;;;;;15.00;99.90;;;;;;5074974;28;19908;-80
2022/06/09 01:16:56;;;;;;;;;;;15.20;99.90;;;;;;5074996;28;19909;-80
2022/06/09 01:19:40;;;;;;;;;;;15.30;99.90;;;;;;5074641;28;19999;-82
2022/06/09 01:22:11;;;;;;;;;;;15.00;99.90;;;;;;5074485;28;19920;-80
2022/06/09 01:24:44;;;;;;;;;;;15.10;99.90;;;;;;5056560;28;19909;-81
2022/06/09 01:27:09;;;;;;;;;;;15.20;99.90;;;;;;5074646;28;19935;-79
2022/06/09 01:29:35;;;;;;;;;;;15.30;99.90;;;;;;5074561;28;19908;-80
2022/06/09 01:32:20;;;;;;;;;;;15.30;99.90;;;;;;5074409;28;19915;-80
2022/06/09 01:34:52;;;;;;;;;;;15.10;99.90;;;;;;5063441;28;19991;-81
2022/06/09 01:37:21;;;;;;;;;;;15.10;99.90;;;;;;5074400;28;19924;-81
2022/06/09 01:39:52;;;;;;;;;;;15.10;99.90;;;;;;5074269;28;19909;-80
2022/06/09 01:42:28;;;;;;;;;;;15.00;99.90;;;;;;5074155;28;20384;-81
2022/06/09 01:44:58;;;;;;;;;;;15.10;99.90;;;;;;5073420;28;20197;-79
2022/06/09 01:47:27;;;;;;;;;;;15.20;99.90;;;;;;5055719;28;19913;-79
2022/06/09 01:49:54;;;;;;;;;;;15.30;99.90;;;;;;5074192;28;19915;-81
2022/06/09 01:52:21;;;;;;;;;;;15.20;99.90;;;;;;5074110;28;20277;-83
2022/06/09 01:54:47;;;;;;;;;;;15.20;99.90;;;;;;5074031;28;19908;-79
2022/06/09 01:57:15;;;;;;;;;;;15.10;99.90;;;;;;5073944;28;19916;-81
2022/06/09 01:59:46;;;;;;;;;;;15.10;99.90;;;;;;5074043;28;20368;-81
2022/06/09 02:02:12;;;;;;;;;;;15.20;99.90;;;;;;5074099;28;19913;-83
2022/06/09 02:04:44;;;;;;;;;;;15.20;99.90;;;;;;5074053;28;19912;-79
2022/06/09 02:07:09;;;;;;;;;;;15.20;99.90;;;;;;5089197;28;19955;-81
2022/06/09 02:09:37;;;;;;;;;;;15.40;99.90;;;;;;5073887;28;19935;-81
2022/06/09 02:12:09;;;;;;;;;;;15.40;99.90;;;;;;5089254;28;19909;-81
2022/06/09 02:14:36;;;;;;;;;;;15.50;99.90;;;;;;5073994;28;19999;-80
2022/06/09 02:17:03;;;;;;;;;;;15.50;99.90;;;;;;5073864;28;19908;-81
2022/06/09 02:19:29;;;;;;;;;;;15.70;99.90;;;;;;5073788;28;19908;-80
2022/06/09 02:21:55;;;;;;;;;;;15.80;99.90;;;;;;5073631;28;20280;-80
2022/06/09 02:24:20;;;;;;;;;;;15.50;99.90;;;;;;5073709;28;19909;-79
2022/06/09 02:26:46;;;;;;;;;;;15.40;99.90;;;;;;5073663;28;19965;-79
2022/06/09 02:29:12;;;;;;;;;;;15.40;99.90;;;;;;5073617;28;20288;-80
2022/06/09 02:31:37;;;;;;;;;;;15.40;99.90;;;;;;5055586;28;19908;-82
2022/06/09 02:34:03;;;;;;;;;;;15.20;99.90;;;;;;5055587;28;19908;-81
2022/06/09 02:36:28;;;;;;;;;;;15.20;99.90;;;;;;5073573;28;19908;-80
2022/06/09 02:38:54;;;;;;;;;;;15.10;99.90;;;;;;5073802;28;19917;-81
2022/06/09 02:41:20;;;;;;;;;;;15.20;99.90;;;;;;5055378;28;20272;-81
2022/06/09 02:43:45;;;;;;;;;;;15.10;99.90;;;;;;5073637;28;19909;-82
2022/06/09 02:46:11;;;;;;;;;;;14.90;99.90;;;;;;5073566;28;19916;-80
2022/06/09 02:48:37;;;;;;;;;;;14.80;99.90;;;;;;5073432;28;19909;-80
2022/06/09 02:51:16;;;;;;;;;;;14.70;99.90;;;;;;5073452;28;20429;-80
2022/06/09 02:53:42;;;;;;;;;;;14.80;99.90;;;;;;5073427;28;19915;-81
2022/06/09 02:56:07;;;;;;;;;;;14.90;99.90;;;;;;5073389;28;19912;-80
2022/06/09 02:58:33;;;;;;;;;;;15.00;99.90;;;;;;5074077;28;19915;-79
2022/06/09 03:00:58;;;;;;;;;;;14.80;99.90;;;;;;5077587;28;19915;-82
2022/06/09 03:03:24;;;;;;;;;;;14.60;99.90;;;;;;5077381;28;20364;-80
2022/06/09 03:05:50;;;;;;;;;;;14.80;99.90;;;;;;5059181;28;19991;-82
2022/06/09 03:08:15;;;;;;;;;;;14.90;99.90;;;;;;5059193;28;19908;-82
2022/06/09 03:10:41;;;;;;;;;;;14.80;99.90;;;;;;5077381;28;19916;-79
2022/06/09 03:13:07;;;;;;;;;;;14.70;99.90;;;;;;5077006;28;19909;-81
2022/06/09 03:15:33;;;;;;;;;;;15.00;99.90;;;;;;5077025;28;20037;-80
2022/06/09 03:17:59;;;;;;;;;;;15.20;99.90;;;;;;5092505;28;19920;-79
2022/06/09 03:20:26;;;;;;;;;;;15.20;99.90;;;;;;5076939;28;19908;-81
2022/06/09 03:22:52;;;;;;;;;;;15.00;99.90;;;;;;5077096;28;19919;-81
2022/06/09 03:25:17;;;;;;;;;;;15.10;99.90;;;;;;5076739;28;20339;-81
2022/06/09 03:27:43;;;;;;;;;;;15.20;99.90;;;;;;5076756;28;19908;-79
2022/06/09 03:30:09;;;;;;;;;;;15.10;99.90;;;;;;5077018;28;19915;-82
2022/06/09 03:32:35;;;;;;;;;;;15.20;99.90;;;;;;5076832;28;19908;-84
2022/06/09 03:35:00;;;;;;;;;;;15.20;99.90;;;;;;5058663;28;20023;-81
2022/06/09 03:37:26;;;;;;;;;;;15.30;99.90;;;;;;5076503;28;19920;-81
2022/06/09 03:39:52;;;;;;;;;;;15.20;99.90;;;;;;5058621;28;19962;-80
2022/06/09 03:42:17;;;;;;;;;;;15.20;99.90;;;;;;5076480;28;19913;-80
2022/06/09 03:44:43;;;;;;;;;;;15.20;99.90;;;;;;5076661;28;19912;-81
2022/06/09 03:47:10;;;;;;;;;;;15.20;99.90;;;;;;5076981;28;20007;-80
2022/06/09 03:49:36;;;;;;;;;;;15.40;99.90;;;;;;5076357;28;19948;-81
2022/06/09 03:52:02;;;;;;;;;;;15.30;99.90;;;;;;5076617;28;20387;-80
2022/06/09 03:54:28;;;;;;;;;;;15.40;99.90;;;;;;5076285;28;19912;-79
2022/06/09 03:56:53;;;;;;;;;;;15.40;99.90;;;;;;5076430;28;19908;-79
2022/06/09 03:59:19;;;;;;;;;;;15.50;99.90;;;;;;5076239;28;19917;-80
2022/06/09 04:01:45;;;;;;;;;;;15.60;99.90;;;;;;5076178;28;19912;-82
2022/06/09 04:04:10;;;;;;;;;;;15.60;99.90;;;;;;5058161;28;19909;-80
2022/06/09 04:06:36;;;;;;;;;;;15.60;99.90;;;;;;5076116;28;20328;-81
2022/06/09 04:09:02;;;;;;;;;;;15.50;99.90;;;;;;5075633;28;20403;-80
2022/06/09 04:11:28;;;;;;;;;;;15.40;99.90;;;;;;5076045;28;19915;-80
2022/06/09 04:13:53;;;;;;;;;;;15.40;99.90;;;;;;5076035;28;19908;-79
2022/06/09 04:16:25;;;;;;;;;;;15.20;99.90;;;;;;5076160;28;20379;-81
2022/06/09 04:18:51;;;;;;;;;;;15.30;99.90;;;;;;5076262;28;19908;-80
2022/06/09 04:21:17;;;;;;;;;;;15.30;99.90;;;;;;5076061;28;19913;-80
2022/06/09 04:23:43;;;;;;;;;;;15.30;99.90;;;;;;5057792;28;20445;-79
2022/06/09 04:26:12;;;;;;;;;;;15.60;99.90;;;;;;5075915;28;19955;-81
2022/06/09 04:28:38;;;;;;;;;;;15.60;99.90;;;;;;5091279;28;20291;-81
2022/06/09 04:31:03;;;;;;;;;;;15.60;99.90;;;;;;5076148;28;19913;-79
2022/06/09 04:33:29;;;;;;;;;;;15.70;99.90;;;;;;5075594;28;19916;-81
2022/06/09 04:35:54;;;;;;;;;;;15.60;99.90;;;;;;5075589;28;20420;-80
2022/06/09 04:38:20;;;;;;;;;;;15.80;99.90;;;;;;5075146;28;19920;-80
2022/06/09 04:40:45;;;;;;;;;;;15.90;99.90;;;;;;5075436;28;19908;-79
2022/06/09 04:43:11;;;;;;;;;;;15.90;99.90;;;;;;5075369;28;19965;-80
2022/06/09 04:45:38;;;;;;;;;;;15.90;99.90;;;;;;5075708;28;20007;-82
2022/06/09 04:48:03;;;;;;;;;;;15.70;99.90;;;;;;5090872;28;20329;-81
2022/06/09 04:50:29;;;;;;;;;;;15.80;99.90;;;;;;5090824;28;20014;-83
2022/06/09 04:52:55;;;;;;;;;;;15.70;99.90;;;;;;5075472;28;20000;-79
2022/06/09 04:55:21;;;;;;;;;;;15.40;99.90;;;;;;5075160;28;19908;-80
2022/06/09 04:57:46;;;;;;;;;;;15.60;99.90;;;;;;5057180;28;19962;-81
2022/06/09 05:00:13;;;;;;;;;;;15.80;99.90;;;;;;5075411;28;19908;-81
2022/06/09 05:02:39;;;;;;;;;;;16.00;99.90;;;;;;5074917;28;19999;-79
2022/06/09 05:05:05;;;;;;;;;;;16.10;99.90;;;;;;5075055;28;19952;-80
2022/06/09 05:07:31;;;;;;;;;;;16.10;99.90;;;;;;5056927;28;19916;-79
2022/06/09 05:09:56;;;;;;;;;;;16.00;99.90;;;;;;5074827;28;20364;-80
2022/06/09 05:12:22;;;;;;;;;;;15.80;99.90;;;;;;5056847;28;19916;-81
2022/06/09 05:14:48;;;;;;;;;;;15.90;99.90;;;;;;5074714;28;19919;-79
2022/06/09 05:17:14;;;;;;;;;;;15.80;99.90;;;;;;5074763;28;19909;-80
2022/06/09 05:19:39;;;;;;;;;;;15.90;99.90;;;;;;5074761;28;20284;-79
2022/06/09 05:22:05;;;;;;;;;;;15.90;99.90;;;;;;5073752;28;19912;-80
2022/06/09 05:24:31;;;;;;;;;;;15.80;99.90;;;;;;5074544;28;19999;-80
2022/06/09 05:26:56;;;;;;;;;;;15.90;99.90;;;;;;5074810;28;19913;-81
2022/06/09 05:29:22;;;;;;;;;;;15.90;99.90;;;;;;5074564;28;20440;-80
2022/06/09 05:31:47;;;;;;;;;;;15.80;99.90;;;;;;5074444;28;19912;-80
2022/06/09 05:34:13;;;;;;;;;;;15.90;99.90;;;;;;5074357;28;19915;-82
2022/06/09 05:36:38;;;;;;;;;;;15.90;99.90;;;;;;5074084;28;20007;-79
2022/06/09 05:44:51;;;;;;;;;;;16.30;99.90;;;;;;5074482;28;19915;-81
2022/06/09 05:47:19;;;;;;;;;;;16.50;99.90;;;;;;5074317;28;20304;-80
2022/06/09 05:49:47;;;;;;;;;;;16.50;99.90;;;;;;5074106;28;20446;-80
2022/06/09 05:52:16;;;;;;;;;;;16.20;99.90;;;;;;5073910;28;19915;-79
2022/06/09 05:54:42;;;;;;;;;;;16.10;99.90;;;;;;5074137;28;19915;-79
2022/06/09 05:57:08;;;;;;;;;;;16.20;99.90;;;;;;5073866;28;20017;-81
2022/06/09 05:59:33;;;;;;;;;;;16.30;99.90;;;;;;5073948;28;19914;-80
2022/06/09 06:01:59;;;;;;;;;;;16.20;99.90;;;;;;5073847;28;19959;-81
2022/06/09 06:04:24;;;;;;;;;;;16.20;99.90;;;;;;5073943;28;19916;-82
2022/06/09 06:06:50;;;;;;;;;;;16.40;99.90;;;;;;5073904;28;19916;-80
2022/06/09 06:09:17;;;;;;;;;;;16.60;99.90;;;;;;5055914;28;19973;-80
2022/06/09 06:11:44;;;;;;;;;;;16.80;99.90;;;;;;5073884;28;19987;-81
2022/06/09 06:14:10;;;;;;;;;;;17.00;99.90;;;;;;5073916;28;20000;-81
2022/06/09 06:16:36;;;;;;;;;;;17.20;99.90;;;;;;5089319;28;19944;-79
2022/06/09 06:19:03;;;;;;;;;;;17.20;99.90;;;;;;5073797;28;19940;-80
2022/06/09 06:21:28;;;;;;;;;;;17.10;99.90;;;;;;5073962;28;19916;-79
2022/06/09 06:23:55;;;;;;;;;;;17.40;99.90;;;;;;5073741;28;19954;-81
2022/06/09 06:26:20;;;;;;;;;;;17.50;99.90;;;;;;5073710;28;20349;-80
2022/06/09 06:28:46;;;;;;;;;;;17.40;99.90;;;;;;5074026;28;19908;-82
2022/06/09 06:31:12;;;;;;;;;;;16.90;99.90;;;;;;5074193;28;19993;-81
2022/06/09 06:33:37;;;;;;;;;;;16.70;99.90;;;;;;5073449;28;19909;-79
2022/06/09 06:36:03;;;;;;;;;;;16.60;99.90;;;;;;5073640;28;19908;-80
2022/06/09 06:38:29;;;;;;;;;;;16.70;99.90;;;;;;5073121;28;19925;-81
2022/06/09 06:40:55;;;;;;;;;;;16.70;99.90;;;;;;5073783;28;19987;-80
2022/06/09 06:43:22;;;;;;;;;;;16.60;99.90;;;;;;5055832;28;19995;-81
2022/06/09 06:45:47;;;;;;;;;;;16.80;99.90;;;;;;5055461;28;19948;-80
2022/06/09 06:48:13;;;;;;;;;;;17.10;99.90;;;;;;5073531;28;19944;-80
2022/06/09 06:50:38;;;;;;;;;;;17.70;99.90;;;;;;5055409;28;19919;-80
2022/06/09 06:53:05;;;;;;;;;;;18.00;99.90;;;;;;5073377;28;20373;-80
2022/06/09 06:55:30;;;;;;;;;;;18.10;99.90;;;;;;5073263;28;19908;-82
2022/06/09 06:57:56;;;;;;;;;;;18.10;99.90;;;;;;5073327;28;20460;-81
2022/06/09 07:00:22;;;;;;;;;;;18.30;99.90;;;;;;5073363;28;19987;-80
2022/06/09 07:02:48;;;;;;;;;;;18.40;99.90;;;;;;5073254;28;19952;-81
2022/06/09 07:05:14;;;;;;;;;;;18.20;99.90;;;;;;5073313;28;19908;-81
2022/06/09 07:07:40;;;;;;;;;;;18.20;99.90;;;;;;5073627;28;19908;-80
2022/06/09 07:10:07;;;;;;;;;;;18.30;99.90;;;;;;5073294;28;20039;-80
2022/06/09 07:12:33;;;;;;;;;;;18.40;99.90;;;;;;5073248;28;19943;-79
2022/06/09 07:14:59;;;;;;;;;;;18.90;99.90;;;;;;5073187;28;20010;-80
2022/06/09 07:17:26;;;;;;;;;;;19.20;99.90;;;;;;5073127;28;19908;-80
2022/06/09 07:19:51;;;;;;;;;;;19.10;99.90;;;;;;5055113;28;20261;-80
2022/06/09 07:22:19;;;;;;;;;;;19.30;99.90;;;;;;5073240;28;19919;-79
2022/06/09 07:24:46;;;;;;;;;;;19.20;99.90;;;;;;5073233;28;19955;-80
2022/06/09 07:27:12;;;;;;;;;;;19.40;99.90;;;;;;5073063;28;19913;-80
2022/06/09 07:29:42;;;;;;;;;;;19.40;99.90;;;;;;5073448;28;20007;-80
2022/06/09 07:32:08;;;;;;;;;;;19.20;99.90;;;;;;5073076;28;19995;-79
2022/06/09 07:34:35;;;;;;;;;;;19.50;99.90;;;;;;5073596;28;20320;-80
2022/06/09 07:37:00;;;;;;;;;;;19.60;99.90;;;;;;5072789;28;20391;-81
2022/06/09 07:39:26;;;;;;;;;;;20.20;99.90;;;;;;5072943;28;19916;-80
2022/06/09 07:41:52;;;;;;;;;;;19.80;99.90;;;;;;5072849;28;19913;-81
2022/06/09 07:44:19;;;;;;;;;;;19.80;99.90;;;;;;5073338;28;19995;-81
2022/06/09 07:46:45;;;;;;;;;;;19.80;99.90;;;;;;5092085;28;20296;-81
2022/06/09 07:49:11;;;;;;;;;;;19.60;99.90;;;;;;5076654;28;19915;-80
2022/06/09 07:51:37;;;;;;;;;;;19.90;99.90;;;;;;5076394;28;20038;-80
2022/06/09 07:54:02;;;;;;;;;;;20.20;99.90;;;;;;5076514;28;19908;-80
2022/06/09 07:56:29;;;;;;;;;;;19.90;99.90;;;;;;5058317;28;19912;-81
2022/06/09 07:58:55;;;;;;;;;;;19.90;99.90;;;;;;5076291;28;19909;-80
2022/06/09 08:01:22;;;;;;;;;;;19.90;99.90;;;;;;5076425;28;19958;-81
2022/06/09 08:03:48;;;;;;;;;;;20.00;99.90;;;;;;5076250;28;19912;-81
2022/06/09 08:06:14;;;;;;;;;;;20.40;99.90;;;;;;5076122;28;19909;-79
2022/06/09 08:08:40;;;;;;;;;;;20.50;99.90;;;;;;5076130;28;19908;-81
2022/06/09 08:11:07;;;;;;;;;;;21.10;99.90;;;;;;5075991;28;20004;-81
2022/06/09 08:13:33;;;;;;;;;;;20.90;99.90;;;;;;5076003;28;19940;-81
2022/06/09 08:15:59;;;;;;;;;;;21.60;99.50;;;;;;5076560;28;19916;-79
2022/06/09 08:18:25;;;;;;;;;;;22.00;97.90;;;;;;5075917;28;19908;-79
2022/06/09 08:20:50;;;;;;;;;;;22.90;94.10;;;;;;5075897;28;20339;-80
2022/06/09 08:23:18;;;;;;;;;;;24.20;92.70;;;;;;5076169;28;19912;-81
2022/06/09 08:25:44;;;;;;;;;;;25.70;88.70;;;;;;5075933;28;19908;-81
2022/06/09 08:28:10;;;;;;;;;;;25.70;86.50;;;;;;5076002;28;19909;-81
2022/06/09 08:30:36;;;;;;;;;;;27.30;83.70;;;;;;5075710;28;19954;-81
2022/06/09 08:33:02;;;;;;;;;;;27.00;78.50;;;;;;5075869;28;19995;-81
2022/06/09 08:35:28;;;;;;;;;;;27.00;78.10;;;;;;5075542;28;19916;-83
2022/06/09 08:37:53;;;;;;;;;;;26.30;75.70;;;;;;5075413;28;20462;-81
2022/06/09 08:40:20;;;;;;;;;;;25.00;77.60;;;;;;5075468;28;19908;-81
2022/06/09 08:42:54;;;;;;;;;;;24.40;76.90;;;;;;5075393;28;19912;-81
2022/06/09 08:45:26;;;;;;;;;;;24.40;79.50;;;;;;5075785;28;20368;-81
2022/06/09 08:47:54;;;;;;;;;;;25.30;76.10;;;;;;5075503;28;20344;-82
2022/06/09 08:50:24;;;;;;;;;;;25.40;74.30;;;;;;5075401;28;20008;-81
2022/06/09 08:52:55;;;;;;;;;;;25.10;75.90;;;;;;5075233;28;19943;-80
2022/06/09 08:55:26;;;;;;;;;;;25.70;74.30;;;;;;5075211;28;19908;-82
2022/06/09 08:57:53;;;;;;;;;;;24.40;74.40;;;;;;5074332;28;20384;-81
2022/06/09 09:00:21;;;;;;;;;;;24.90;73.60;;;;;;5075017;28;19912;-81
2022/06/09 09:02:49;;;;;;;;;;;24.90;74.30;;;;;;5075292;28;19999;-80
2022/06/09 09:05:15;;;;;;;;;;;25.30;73.00;;;;;;5074842;28;19909;-81
2022/06/09 09:07:48;;;;;;;;;;;25.90;70.40;;;;;;5074952;28;19916;-82
2022/06/09 09:10:18;;;;;;;;;;;26.60;69.50;;;;;;5074847;28;19943;-82
2022/06/09 09:12:52;;;;;;;;;;;26.80;66.90;;;;;;5074835;28;19909;-80
2022/06/09 09:15:20;;;;;;;;;;;25.80;67.90;;;;;;5074777;28;19908;-83
2022/06/09 09:17:52;;;;;;;;;;;26.90;67.00;;;;;;5074703;28;19910;-82
2022/06/09 09:20:24;;;;;;;;;;;27.10;67.20;;;;;;5074693;28;20380;-81
2022/06/09 09:23:02;;;;;;;;;;;27.50;67.60;;;;;;5074676;28;19996;-81
2022/06/09 09:25:31;;;;;;;;;;;27.20;65.60;;;;;;5056369;28;19915;-80
2022/06/09 09:28:05;;;;;;;;;;;26.30;64.70;;;;;;5074503;28;19909;-82
2022/06/09 09:30:36;;;;;;;;;;;26.20;61.80;;;;;;5074712;28;19915;-83
2022/06/09 09:33:02;;;;;;;;;;;27.00;63.50;;;;;;5074674;28;19915;-81
2022/06/09 09:35:33;;;;;;;;;;;27.20;63.20;;;;;;5074344;28;19908;-80
2022/06/09 09:37:59;;;;;;;;;;;27.60;64.10;;;;;;5073971;28;19925;-81
2022/06/09 09:40:33;;;;;;;;;;;27.60;62.10;;;;;;5074205;28;20288;-80
2022/06/09 09:43:03;;;;;;;;;;;27.90;61.90;;;;;;5074266;28;19924;-82
2022/06/09 09:45:34;;;;;;;;;;;27.50;61.40;;;;;;5074124;28;19913;-80
2022/06/09 09:48:01;;;;;;;;;;;28.50;62.20;;;;;;5074246;28;19909;-83
2022/06/09 09:50:26;;;;;;;;;;;29.10;60.00;;;;;;5074134;28;20372;-81
2022/06/09 09:52:55;;;;;;;;;;;27.70;60.40;;;;;;5074091;28;19915;-79
2022/06/09 09:55:32;;;;;;;;;;;27.90;60.90;;;;;;5074039;28;19908;-81
2022/06/09 09:58:15;;;;;;;;;;;27.60;60.40;;;;;;5056036;28;19958;-82
2022/06/09 10:00:41;;;;;;;;;;;27.90;60.00;;;;;;5074061;28;19909;-80
2022/06/09 10:08:43;;;;;;;;;;;27.70;59.90;;;;;;5073659;28;19962;-82
2022/06/09 10:14:04;;;;;;;;;;;27.10;59.60;;;;;;5073650;28;19995;-82
2022/06/09 10:16:32;;;;;;;;;;;28.50;58.40;;;;;;5073860;28;19909;-81
2022/06/09 10:19:02;;;;;;;;;;;28.50;57.70;;;;;;5074203;28;20387;-82
2022/06/09 10:21:46;;;;;;;;;;;29.70;57.50;;;;;;5073560;28;19966;-83
2022/06/09 10:24:11;;;;;;;;;;;30.90;55.80;;;;;;5074365;28;19915;-83
2022/06/09 10:26:39;;;;;;;;;;;30.10;54.30;;;;;;5073684;28;19908;-82
2022/06/09 10:29:11;;;;;;;;;;;28.40;57.50;;;;;;5073651;28;19909;-82
2022/06/09 10:31:55;;;;;;;;;;;28.80;58.10;;;;;;5074201;28;19916;-83
2022/06/09 10:34:27;;;;;;;;;;;29.50;56.20;;;;;;5073611;28;19908;-82
2022/06/09 10:36:58;;;;;;;;;;;29.70;55.70;;;;;;5073486;28;19921;-82
2022/06/09 10:39:33;;;;;;;;;;;30.60;55.00;;;;;;5073974;28;19912;-83
2022/06/09 10:42:11;;;;;;;;;;;31.00;54.80;;;;;;5073709;28;19951;-83
2022/06/09 10:44:44;;;;;;;;;;;29.90;54.60;;;;;;5073713;28;19916;-79
2022/06/09 10:55:49;;;;;;;;;;;27.90;57.20;;;;;;5073659;28;19915;-82
2022/06/09 10:58:26;;;;;;;;;;;29.40;55.30;;;;;;5073380;28;20437;-83
2022/06/09 11:00:52;;;;;;;;;;;29.20;54.80;;;;;;5073636;28;19908;-83
2022/06/09 11:03:19;;;;;;;;;;;29.30;54.70;;;;;;5055364;28;19919;-80
2022/06/09 11:05:52;;;;;;;;;;;29.20;55.40;;;;;;5073355;28;19912;-80
2022/06/09 11:08:18;;;;;;;;;;;28.00;56.90;;;;;;5073380;28;19909;-81
2022/06/09 11:10:53;;;;;;;;;;;26.70;59.20;;;;;;5073595;28;19908;-81
2022/06/09 11:13:24;;;;;;;;;;;26.60;60.20;;;;;;5073203;28;20394;-82
2022/06/09 11:16:09;;;;;;;;;;;27.50;58.60;;;;;;5073387;28;19987;-83
2022/06/09 11:18:34;;;;;;;;;;;27.40;57.70;;;;;;5073440;28;20296;-82
2022/06/09 11:21:12;;;;;;;;;;;28.70;57.00;;;;;;5076232;28;19909;-82
2022/06/09 11:23:53;;;;;;;;;;;30.10;54.00;;;;;;5077318;28;20372;-80
2022/06/09 11:26:21;;;;;;;;;;;28.50;55.50;;;;;;5077188;28;19913;-81
2022/06/09 11:29:13;;;;;;;;;;;28.60;56.80;;;;;;5076920;28;19909;-82
2022/06/09 11:31:57;;;;;;;;;;;28.40;56.30;;;;;;5076970;28;19913;-82
2022/06/09 11:34:41;;;;;;;;;;;29.30;55.50;;;;;;5076797;28;19915;-82
2022/06/09 11:37:23;;;;;;;;;;;30.00;52.50;;;;;;5076571;28;19920;-84
2022/06/09 11:40:01;;;;;;;;;;;30.10;53.80;;;;;;5092069;28;20307;-80
2022/06/09 11:42:29;;;;;;;;;;;29.60;53.90;;;;;;5076572;28;20368;-81
2022/06/09 11:44:57;;;;;;;;;;;29.20;55.90;;;;;;5076485;28;19908;-83
2022/06/09 11:47:26;;;;;;;;;;;30.60;53.70;;;;;;5076812;28;19913;-80
2022/06/09 11:49:54;;;;;;;;;;;29.60;54.60;;;;;;5076591;28;19958;-81
2022/06/09 11:52:25;;;;;;;;;;;28.60;56.20;;;;;;5076497;28;20003;-82
2022/06/09 11:54:54;;;;;;;;;;;28.90;56.30;;;;;;5076934;28;19954;-82
2022/06/09 11:57:39;;;;;;;;;;;30.40;54.10;;;;;;5076822;28;20392;-82
2022/06/09 12:00:22;;;;;;;;;;;29.30;54.40;;;;;;5076392;28;19916;-81
2022/06/09 12:02:57;;;;;;;;;;;28.80;54.60;;;;;;5076211;28;19912;-81
2022/06/09 12:05:25;;;;;;;;;;;28.30;56.30;;;;;;5076548;28;19982;-82
2022/06/09 12:07:57;;;;;;;;;;;27.80;56.20;;;;;;5058182;28;20369;-81
2022/06/09 12:10:47;;;;;;;;;;;28.30;57.30;;;;;;5076191;28;19947;-81
2022/06/09 12:13:18;;;;;;;;;;;30.60;54.80;;;;;;5068290;28;19908;-81
2022/06/09 12:15:49;;;;;;;;;;;31.70;51.60;;;;;;5076090;28;20348;-81
2022/06/09 12:18:16;;;;;;;;;;;30.90;53.30;;;;;;5076003;28;19909;-81
2022/06/09 12:20:48;;;;;;;;;;;32.30;51.70;;;;;;5075919;28;20368;-83
2022/06/09 12:23:23;;;;;;;;;;;32.10;51.80;;;;;;5076115;28;19919;-84
2022/06/09 12:26:07;;;;;;;;;;;31.50;52.40;;;;;;5075814;28;19909;-81
2022/06/09 12:28:41;;;;;;;;;;;31.50;52.50;;;;;;5075814;28;19908;-85
2022/06/09 12:31:09;;;;;;;;;;;30.80;52.50;;;;;;5075618;28;19927;-83
2022/06/09 12:33:35;;;;;;;;;;;30.70;52.90;;;;;;5075769;28;19908;-81
2022/06/09 12:36:03;;;;;;;;;;;29.90;53.60;;;;;;5075741;28;19916;-80
2022/06/09 12:38:34;;;;;;;;;;;29.70;54.40;;;;;;5075225;28;19924;-83
2022/06/09 12:41:02;;;;;;;;;;;29.00;54.70;;;;;;5057715;28;19909;-82
2022/06/09 12:43:33;;;;;;;;;;;28.20;56.40;;;;;;5075619;28;20301;-81
2022/06/09 12:46:04;;;;;;;;;;;28.00;56.40;;;;;;5075683;28;19912;-80
2022/06/09 12:48:30;;;;;;;;;;;28.10;56.40;;;;;;5075833;28;19908;-82
2022/06/09 12:50:56;;;;;;;;;;;28.00;56.50;;;;;;5075784;28;19961;-80
2022/06/09 12:53:29;;;;;;;;;;;27.80;56.90;;;;;;5075733;28;19995;-81
2022/06/09 12:56:01;;;;;;;;;;;27.40;57.50;;;;;;5075501;28;19915;-82
2022/06/09 12:58:35;;;;;;;;;;;27.50;58.40;;;;;;5075689;28;19908;-82
2022/06/09 13:01:02;;;;;;;;;;;28.00;57.30;;;;;;5075730;28;20330;-81
2022/06/09 13:03:32;;;;;;;;;;;28.40;57.30;;;;;;5075539;28;20371;-80
2022/06/09 13:06:30;;;;;;;;;;;29.00;56.50;;;;;;5076432;28;19908;-81
2022/06/09 13:09:00;;;;;;;;;;;30.10;55.90;;;;;;5043054;28;19999;-81
2022/06/09 13:14:22;;;;;;;;;;;30.90;53.60;;;;;;5076971;28;19916;-81
2022/06/09 13:16:49;;;;;;;;;;;30.40;54.30;;;;;;5076667;28;20007;-80
2022/06/09 13:19:17;;;;;;;;;;;29.60;54.70;;;;;;5076847;28;20000;-81
2022/06/09 13:21:43;;;;;;;;;;;29.70;55.40;;;;;;5076606;28;19998;-82
2022/06/09 13:24:19;;;;;;;;;;;29.80;55.10;;;;;;5074942;28;20365;-83
2022/06/09 13:26:46;;;;;;;;;;;29.60;54.90;;;;;;5074786;28;19909;-82
2022/06/09 13:29:21;;;;;;;;;;;29.10;55.80;;;;;;5074678;28;19909;-82
2022/06/09 13:31:48;;;;;;;;;;;29.10;56.30;;;;;;5056581;28;19974;-80
2022/06/09 13:34:14;;;;;;;;;;;30.40;55.60;;;;;;5074601;28;19908;-82
2022/06/09 13:36:55;;;;;;;;;;;29.50;55.60;;;;;;5074265;28;19924;-79
2022/06/09 13:39:32;;;;;;;;;;;28.80;57.20;;;;;;5074439;28;19931;-83
2022/06/09 13:42:05;;;;;;;;;;;29.80;56.40;;;;;;5073786;28;20353;-81
2022/06/09 13:44:32;;;;;;;;;;;30.90;54.90;;;;;;5074632;28;19908;-81
2022/06/09 13:47:04;;;;;;;;;;;31.80;53.70;;;;;;5074227;28;19909;-80
2022/06/09 13:49:31;;;;;;;;;;;32.20;52.70;;;;;;5074198;28;20010;-81
2022/06/09 13:51:58;;;;;;;;;;;32.80;51.60;;;;;;5074238;28;19915;-83
2022/06/09 13:54:32;;;;;;;;;;;31.30;53.30;;;;;;5074147;28;19944;-83
2022/06/09 13:56:58;;;;;;;;;;;30.40;54.80;;;;;;5074385;28;19948;-80
2022/06/09 13:59:25;;;;;;;;;;;30.90;54.40;;;;;;5074021;28;20357;-81
2022/06/09 14:01:52;;;;;;;;;;;30.30;53.90;;;;;;5073954;28;19913;-82
2022/06/09 14:04:30;;;;;;;;;;;29.40;54.50;;;;;;5074095;28;20269;-82
2022/06/09 14:06:56;;;;;;;;;;;29.10;56.70;;;;;;5074203;28;20384;-81
2022/06/09 14:09:21;;;;;;;;;;;28.90;57.20;;;;;;5073962;28;19908;-81
2022/06/09 14:11:47;;;;;;;;;;;29.40;55.70;;;;;;5073870;28;19949;-81
2022/06/09 14:14:13;;;;;;;;;;;28.70;56.70;;;;;;5073938;28;20347;-80
2022/06/09 14:16:42;;;;;;;;;;;30.90;55.90;;;;;;5055858;28;19968;-84
2022/06/09 14:19:08;;;;;;;;;;;33.40;53.20;;;;;;5073729;28;19916;-82
2022/06/09 14:21:33;;;;;;;;;;;33.00;51.60;;;;;;5073708;28;19913;-83
2022/06/09 14:24:03;;;;;;;;;;;33.40;51.30;;;;;;5073874;28;19952;-83
2022/06/09 14:26:33;;;;;;;;;;;33.20;51.50;;;;;;5073752;28;19944;-82
2022/06/09 14:28:59;;;;;;;;;;;33.50;50.50;;;;;;5073857;28;19909;-82
2022/06/09 14:31:25;;;;;;;;;;;31.30;51.80;;;;;;5055671;28;20007;-80
2022/06/09 14:33:51;;;;;;;;;;;29.30;54.10;;;;;;5073706;28;19976;-82
2022/06/09 14:36:18;;;;;;;;;;;28.50;56.20;;;;;;5073768;28;20317;-80
2022/06/09 14:38:44;;;;;;;;;;;30.50;55.40;;;;;;5073504;28;20373;-84
2022/06/09 14:41:11;;;;;;;;;;;31.80;52.50;;;;;;5073941;28;19912;-81
2022/06/09 14:43:36;;;;;;;;;;;29.80;54.60;;;;;;5073626;28;19995;-82
2022/06/09 14:46:02;;;;;;;;;;;28.90;56.20;;;;;;5073631;28;19940;-82
2022/06/09 14:48:31;;;;;;;;;;;30.20;56.30;;;;;;5073523;28;20288;-81